Time;durP1;ratioP1;P1;durP2;ratioP2;P2;SDS_P1;SDS_P2;PMS_P1;PMS_P2;Temp;Humidity;BMP_temperature;BMP_pressure;BME280_temperature;BME280_humidity;BME280_pressure;Samples;Min_cycle;Max_cycle;Signal;HPM_P1;HPM_P2
2022/07/23 00:02:22;;;;;;;13.15;5.00;;;;;;;26.97;90.96;101014.00;4957723;29;20347;-73
2022/07/23 00:05:09;;;;;;;11.25;5.10;;;;;;;26.54;95.46;101026.44;4958036;28;20023;-73
2022/07/23 00:07:54;;;;;;;11.55;5.00;;;;;;;26.58;95.86;101028.81;4944688;29;20118;-73
2022/07/23 00:10:41;;;;;;;11.35;5.32;;;;;;;26.76;95.03;101026.50;4958729;29;20458;-73
2022/07/23 00:13:27;;;;;;;12.23;5.18;;;;;;;26.46;100.00;101029.72;4957995;28;20049;-73
2022/07/23 00:16:13;;;;;;;8.80;5.15;;;;;;;26.19;100.00;101018.44;4944688;29;20035;-73
2022/07/23 00:19:01;;;;;;;7.72;4.63;;;;;;;26.32;100.00;101026.41;4957473;29;20050;-73
2022/07/23 00:21:46;;;;;;;9.32;5.05;;;;;;;26.38;100.00;101020.53;4957293;29;20027;-73
2022/07/23 00:24:32;;;;;;;9.85;5.10;;;;;;;26.44;100.00;101020.06;4958075;28;20433;-74
2022/07/23 00:27:18;;;;;;;8.25;5.30;;;;;;;26.54;100.00;101016.53;4957601;29;20058;-73
2022/07/23 00:30:04;;;;;;;10.70;4.93;;;;;;;26.55;100.00;101025.44;4943726;29;20051;-73
2022/07/23 00:32:56;;;;;;;6.53;4.93;;;;;;;26.48;99.38;101017.00;4957076;29;20035;-74
2022/07/23 00:35:42;;;;;;;11.75;5.05;;;;;;;26.38;97.58;101009.78;4957968;29;20031;-74
2022/07/23 00:38:27;;;;;;;12.90;5.35;;;;;;;26.38;96.25;101010.66;4957855;29;20039;-74
2022/07/23 00:41:13;;;;;;;13.05;5.75;;;;;;;26.41;95.21;101004.19;4957878;29;20027;-73
2022/07/23 00:44:18;;;;;;;9.45;5.70;;;;;;;26.42;93.48;101004.06;4957821;28;20027;-74
2022/07/23 00:47:05;;;;;;;16.70;5.88;;;;;;;26.51;91.50;101005.16;4957172;29;20122;-73
2022/07/23 00:49:51;;;;;;;15.13;5.68;;;;;;;26.18;90.64;100994.38;4956957;29;20031;-74
2022/07/23 00:52:38;;;;;;;17.65;6.10;;;;;;;26.18;90.42;100997.91;4957228;29;20054;-73
2022/07/23 00:55:24;;;;;;;15.05;5.93;;;;;;;26.44;86.33;101001.25;4956767;28;20454;-73
2022/07/23 00:58:11;;;;;;;13.30;5.88;;;;;;;26.27;84.76;100996.31;4956760;29;20039;-73
2022/07/23 01:00:56;;;;;;;11.20;5.65;;;;;;;26.46;83.91;100999.28;4943673;29;20060;-74
2022/07/23 01:03:42;;;;;;;11.52;5.70;;;;;;;26.42;84.19;100995.13;4957214;28;20046;-74
2022/07/23 01:06:28;;;;;;;13.20;5.28;;;;;;;26.52;82.11;100996.13;4957638;29;20038;-74
2022/07/23 01:09:15;;;;;;;12.52;5.22;;;;;;;26.69;80.38;100993.00;4957333;29;20027;-74
2022/07/23 01:12:01;;;;;;;16.73;5.47;;;;;;;26.16;82.44;100990.97;4957056;29;20031;-73
2022/07/23 01:14:59;;;;;;;11.07;5.13;;;;;;;26.32;80.08;100996.84;4956381;28;20035;-73
2022/07/23 01:17:45;;;;;;;12.15;4.63;;;;;;;26.62;79.71;100994.44;4957540;29;20039;-74
2022/07/23 01:20:32;;;;;;;13.07;4.90;;;;;;;26.16;82.25;100997.16;4956529;29;20037;-73
2022/07/23 01:23:17;;;;;;;12.82;5.07;;;;;;;25.91;84.66;100991.06;4942836;28;20046;-74
2022/07/23 01:26:03;;;;;;;11.68;5.10;;;;;;;26.12;84.46;100992.16;4956744;28;20054;-73
2022/07/23 01:28:49;;;;;;;14.68;5.30;;;;;;;26.17;84.71;100985.47;4956001;29;20212;-74
2022/07/23 01:31:35;;;;;;;12.25;5.45;;;;;;;26.26;84.81;100994.63;4956660;29;20023;-74
2022/07/23 01:34:21;;;;;;;9.93;4.78;;;;;;;25.81;89.43;100990.06;4955962;28;20110;-73
2022/07/23 01:37:06;;;;;;;11.85;5.18;;;;;;;25.74;85.82;100994.19;4943805;29;20170;-74
2022/07/23 01:39:52;;;;;;;14.45;4.72;;;;;;;25.81;83.76;101003.50;4956413;28;20477;-73
2022/07/23 01:42:38;;;;;;;9.25;4.45;;;;;;;25.44;82.15;101000.03;4942447;29;20086;-74
2022/07/23 01:45:24;;;;;;;8.75;4.22;;;;;;;25.44;81.30;100993.81;4956364;28;20031;-72
2022/07/23 01:48:10;;;;;;;8.07;3.92;;;;;;;25.31;80.74;100988.50;4956840;29;20050;-73
2022/07/23 01:50:56;;;;;;;11.50;4.13;;;;;;;25.33;80.65;100994.63;4955803;29;20042;-72
2022/07/23 01:53:41;;;;;;;5.45;3.53;;;;;;;25.63;75.99;100994.16;4956527;28;20031;-72
2022/07/23 01:56:27;;;;;;;5.38;3.72;;;;;;;25.39;77.27;100993.31;4956019;29;20038;-72
2022/07/23 01:59:13;;;;;;;7.82;3.53;;;;;;;25.54;76.30;100989.47;4942972;29;20358;-72
2022/07/23 02:01:59;;;;;;;11.80;4.40;;;;;;;25.52;75.83;100992.25;4955222;29;20028;-72
2022/07/23 02:04:44;;;;;;;8.55;3.80;;;;;;;25.34;77.12;100990.09;4955960;28;20038;-72
2022/07/23 02:07:30;;;;;;;8.00;3.55;;;;;;;25.50;75.39;100994.22;4956396;29;20027;-73
2022/07/23 02:10:16;;;;;;;7.82;3.22;;;;;;;25.53;74.57;100988.63;4956332;29;20391;-73
2022/07/23 02:13:02;;;;;;;9.63;3.70;;;;;;;25.58;75.00;100993.63;4943466;28;20033;-72
2022/07/23 02:15:48;;;;;;;8.07;3.20;;;;;;;25.10;77.57;100991.84;4955477;29;20118;-72
2022/07/23 02:18:33;;;;;;;5.78;3.30;;;;;;;24.96;78.06;100990.22;4956106;29;20027;-72
2022/07/23 02:21:19;;;;;;;9.15;3.35;;;;;;;25.23;76.47;100988.16;4956083;29;20094;-72
2022/07/23 02:24:05;;;;;;;7.72;3.63;;;;;;;25.14;77.02;100977.25;4955572;28;20038;-72
2022/07/23 02:26:51;;;;;;;5.93;3.45;;;;;;;25.20;76.03;100977.66;4955261;28;20047;-72
2022/07/23 02:29:36;;;;;;;9.40;4.20;;;;;;;25.13;76.95;100976.41;4956225;29;20047;-73
2022/07/23 02:32:22;;;;;;;10.77;3.95;;;;;;;25.19;76.87;100983.16;4955744;29;20031;-72
2022/07/23 02:35:08;;;;;;;14.23;4.07;;;;;;;25.47;76.36;100985.56;4956195;28;20027;-71
2022/07/23 02:37:54;;;;;;;11.43;4.50;;;;;;;25.67;74.08;100982.19;4956553;29;20081;-71
2022/07/23 02:40:40;;;;;;;11.85;4.30;;;;;;;25.50;74.39;100979.94;4956257;29;20027;-71
2022/07/23 02:43:25;;;;;;;9.18;4.22;;;;;;;25.61;75.00;100986.22;4956145;28;20553;-72
2022/07/23 02:46:11;;;;;;;11.57;4.13;;;;;;;25.63;73.21;100994.16;4941965;29;20035;-71
2022/07/23 02:48:57;;;;;;;5.90;3.58;;;;;;;25.57;73.29;100986.56;4956514;29;20110;-71
2022/07/23 02:51:43;;;;;;;12.27;4.13;;;;;;;25.62;71.89;100987.06;4956196;28;20111;-72
2022/07/23 02:54:28;;;;;;;7.72;3.70;;;;;;;25.57;71.44;100989.25;4959825;28;20031;-72
2022/07/23 02:57:14;;;;;;;5.97;3.65;;;;;;;25.59;72.27;100993.53;4959543;29;20082;-72
2022/07/23 03:00:00;;;;;;;9.48;3.67;;;;;;;25.31;75.70;100998.38;4959826;29;20096;-72
2022/07/23 03:02:46;;;;;;;14.13;4.10;;;;;;;25.14;77.44;100994.22;4959421;29;20051;-72
2022/07/23 03:05:31;;;;;;;5.35;3.88;;;;;;;24.90;78.72;100998.69;4945815;28;20023;-73
2022/07/23 03:08:17;;;;;;;10.32;4.13;;;;;;;25.28;76.09;100993.25;4959041;29;20031;-72
2022/07/23 03:11:03;;;;;;;8.05;3.90;;;;;;;25.18;75.13;100998.38;4959505;29;20478;-72
2022/07/23 03:13:49;;;;;;;9.88;4.30;;;;;;;25.45;73.90;101011.63;4959208;28;20177;-72
2022/07/23 03:16:34;;;;;;;10.30;4.50;;;;;;;25.28;75.05;101020.06;4959086;29;20110;-71
2022/07/23 03:19:20;;;;;;;9.90;4.10;;;;;;;25.58;74.23;101017.78;4958893;29;20110;-72
2022/07/23 03:22:07;;;;;;;8.00;4.43;;;;;;;25.47;75.77;101026.63;4957964;29;20027;-72
2022/07/23 03:24:55;;;;;;;15.50;5.50;;;;;;;25.65;85.35;101029.78;4958471;28;20110;-72
2022/07/23 03:27:41;;;;;;;14.60;5.57;;;;;;;24.99;91.47;101023.97;4958224;29;20114;-72
2022/07/23 03:30:27;;;;;;;14.77;6.60;;;;;;;25.06;97.88;101026.09;4959082;29;20182;-72
2022/07/23 03:33:13;;;;;;;14.55;6.70;;;;;;;25.34;97.32;101027.66;4958675;28;20051;-72
2022/07/23 03:35:59;;;;;;;13.07;6.93;;;;;;;25.53;97.11;101030.69;4958888;29;20118;-72
2022/07/23 03:38:45;;;;;;;19.95;7.15;;;;;;;25.24;99.86;101031.97;4958756;29;20035;-71
2022/07/23 03:41:30;;;;;;;23.08;9.77;;;;;;;24.90;100.00;101040.69;4959155;29;20024;-72
2022/07/23 03:44:16;;;;;;;26.58;12.13;;;;;;;25.37;99.24;101039.03;4959089;28;20035;-72
2022/07/23 03:47:03;;;;;;;35.72;14.30;;;;;;;25.46;98.79;101037.47;4958141;29;20454;-71
2022/07/23 03:49:49;;;;;;;42.03;18.17;;;;;;;25.51;97.88;101038.84;4958269;29;20038;-73
2022/07/23 03:52:35;;;;;;;60.05;19.45;;;;;;;25.34;99.48;101052.66;4958755;29;20437;-71
2022/07/23 03:55:21;;;;;;;59.30;20.85;;;;;;;25.35;100.00;101048.16;4958530;28;20031;-71
2022/07/23 03:58:07;;;;;;;53.83;19.48;;;;;;;25.19;100.00;101055.59;4957902;29;20099;-73
2022/07/23 04:00:52;;;;;;;56.20;20.23;;;;;;;25.12;100.00;101048.94;4957964;29;20097;-72
2022/07/23 04:03:39;;;;;;;47.95;19.00;;;;;;;25.21;100.00;101057.19;4956922;28;20034;-72
2022/07/23 04:06:25;;;;;;;37.47;16.33;;;;;;;25.14;100.00;101063.94;4956975;29;20035;-72
2022/07/23 04:09:11;;;;;;;46.00;14.93;;;;;;;24.92;100.00;101069.16;4957618;29;20035;-73
2022/07/23 04:11:57;;;;;;;39.53;12.75;;;;;;;25.07;100.00;101080.59;4957869;29;20472;-71
2022/07/23 04:14:43;;;;;;;21.00;10.38;;;;;;;25.07;100.00;101075.25;4956880;28;20042;-72
2022/07/23 04:17:29;;;;;;;17.33;8.82;;;;;;;24.96;100.00;101077.81;4957826;29;20027;-72
2022/07/23 04:20:14;;;;;;;18.20;8.63;;;;;;;25.13;100.00;101080.16;4957474;29;20061;-72
2022/07/23 04:23:00;;;;;;;27.17;10.35;;;;;;;25.03;100.00;101077.25;4957945;29;20098;-72
2022/07/23 04:25:46;;;;;;;29.38;11.00;;;;;;;25.34;100.00;101073.25;4957021;29;20487;-72
2022/07/23 04:28:32;;;;;;;25.88;10.38;;;;;;;24.84;100.00;101076.00;4942918;29;20347;-72
2022/07/23 04:31:17;;;;;;;26.90;10.32;;;;;;;25.10;100.00;101069.63;4944705;29;20442;-72
2022/07/23 04:34:03;;;;;;;23.77;10.00;;;;;;;25.64;100.00;101065.66;4957243;28;20394;-72
2022/07/23 04:36:49;;;;;;;28.42;11.15;;;;;;;25.65;100.00;101065.53;4958024;29;20482;-71
2022/07/23 04:39:34;;;;;;;28.15;11.15;;;;;;;25.55;100.00;101069.88;4957658;29;20031;-72
2022/07/23 04:42:20;;;;;;;29.17;11.43;;;;;;;25.76;100.00;101076.31;4957566;29;20370;-72
2022/07/23 04:45:07;;;;;;;28.15;11.50;;;;;;;25.79;100.00;101070.72;4956691;28;20125;-72
2022/07/23 04:47:52;;;;;;;25.85;11.82;;;;;;;25.98;98.24;101083.66;4957234;29;20035;-72
2022/07/23 04:50:38;;;;;;;27.60;11.82;;;;;;;25.99;98.86;101088.91;4956654;29;20114;-72
2022/07/23 04:53:24;;;;;;;23.88;9.70;;;;;;;26.11;96.49;101090.69;4956782;28;20177;-73
2022/07/23 04:56:09;;;;;;;18.25;8.02;;;;;;;26.00;96.00;101098.69;4957560;29;20035;-72
2022/07/23 04:58:55;;;;;;;20.98;7.45;;;;;;;25.99;94.20;101096.97;4957092;29;20031;-72
2022/07/23 05:01:41;;;;;;;21.50;7.72;;;;;;;26.03;95.03;101100.28;4956997;29;20058;-71
2022/07/23 05:04:27;;;;;;;21.05;6.63;;;;;;;26.15;93.84;101104.72;4957434;28;20369;-73
2022/07/23 05:07:13;;;;;;;12.32;5.75;;;;;;;26.38;90.79;101103.84;4956896;29;20480;-73
2022/07/23 05:09:59;;;;;;;12.05;5.43;;;;;;;26.32;91.96;101107.00;4956465;29;20027;-72
2022/07/23 05:12:44;;;;;;;17.08;5.95;;;;;;;26.36;88.37;101112.00;4957586;29;20041;-72
2022/07/23 05:15:30;;;;;;;16.38;5.50;;;;;;;26.22;91.53;101117.59;4955866;28;20110;-72
2022/07/23 05:18:16;;;;;;;17.60;5.13;;;;;;;26.22;91.14;101122.97;4957518;29;20042;-72
2022/07/23 05:21:02;;;;;;;13.75;5.00;;;;;;;26.30;89.01;101119.69;4955838;29;20063;-72
2022/07/23 05:23:48;;;;;;;8.75;4.18;;;;;;;26.22;90.43;101120.28;4957530;28;20039;-72
2022/07/23 05:26:33;;;;;;;8.35;4.00;;;;;;;26.42;85.63;101114.25;4956679;29;20070;-72
2022/07/23 05:29:19;;;;;;;7.82;4.47;;;;;;;26.44;84.69;101128.41;4956829;29;20046;-72
2022/07/23 05:32:05;;;;;;;7.82;4.40;;;;;;;26.51;75.23;101123.41;4956132;29;20190;-72
2022/07/23 05:34:51;;;;;;;5.85;4.00;;;;;;;26.67;76.90;101123.97;4955927;28;20037;-72
2022/07/23 05:37:37;;;;;;;6.93;4.05;;;;;;;26.97;74.53;101126.97;4956878;29;20106;-72
2022/07/23 05:40:22;;;;;;;6.93;4.43;;;;;;;27.01;72.75;101128.44;4956025;29;20055;-73
2022/07/23 05:43:08;;;;;;;7.57;4.05;;;;;;;27.09;71.75;101128.69;4942839;29;20027;-72
2022/07/23 05:45:54;;;;;;;9.00;4.50;;;;;;;27.60;66.07;101127.22;4955871;29;20027;-73
2022/07/23 05:48:41;;;;;;;10.77;4.80;;;;;;;27.45;63.27;101134.69;4956800;29;20027;-73
2022/07/23 05:51:27;;;;;;;11.95;4.60;;;;;;;27.31;65.09;101134.97;4956082;29;20035;-73
2022/07/23 05:54:12;;;;;;;8.23;4.60;;;;;;;27.62;64.33;101140.56;4955976;28;20173;-73
2022/07/23 05:56:58;;;;;;;10.55;4.22;;;;;;;27.62;67.87;101141.44;4956547;29;20027;-72
2022/07/23 05:59:44;;;;;;;14.40;4.13;;;;;;;27.84;67.54;101130.63;4956910;29;20038;-72
2022/07/23 06:02:29;;;;;;;13.23;4.20;;;;;;;27.69;67.36;101131.88;4956523;29;20075;-72
2022/07/23 06:05:15;;;;;;;13.90;4.88;;;;;;;27.68;65.54;101134.69;4955740;28;20501;-73
2022/07/23 06:08:01;;;;;;;10.55;4.32;;;;;;;28.10;63.72;101126.63;4956422;29;20039;-72
2022/07/23 06:10:47;;;;;;;12.07;4.55;;;;;;;28.04;63.71;101132.53;4955893;29;20562;-72
2022/07/23 06:13:33;;;;;;;9.13;5.20;;;;;;;28.30;64.47;101131.22;4955907;28;20119;-72
2022/07/23 06:16:18;;;;;;;8.63;4.75;;;;;;;28.23;65.15;101135.41;4955595;29;20038;-72
2022/07/23 06:19:04;;;;;;;8.75;5.18;;;;;;;28.16;66.79;101136.88;4955774;29;20182;-73
2022/07/23 06:21:51;;;;;;;11.10;4.95;;;;;;;28.28;64.42;101140.41;4956189;29;20106;-73
2022/07/23 06:24:37;;;;;;;12.02;5.65;;;;;;;28.56;66.24;101142.50;4955956;28;20031;-73
2022/07/23 06:27:22;;;;;;;10.45;6.40;;;;;;;28.74;70.06;101140.94;4956793;28;20047;-71
2022/07/23 06:30:10;;;;;;;17.55;7.22;;;;;;;28.53;76.95;101143.59;4946740;29;20027;-72
2022/07/23 06:32:55;;;;;;;13.13;6.53;;;;;;;28.49;80.43;101149.41;4959436;29;20024;-72
2022/07/23 06:35:41;;;;;;;11.93;6.45;;;;;;;28.52;82.13;101150.00;4960387;29;20023;-72
2022/07/23 06:38:27;;;;;;;18.73;6.97;;;;;;;28.75;79.15;101148.03;4959631;29;20417;-73
2022/07/23 06:41:13;;;;;;;13.52;6.70;;;;;;;28.47;79.30;101146.84;4959513;29;20027;-72
2022/07/23 06:43:58;;;;;;;14.32;6.22;;;;;;;28.76;75.93;101138.97;4959152;28;20525;-71
2022/07/23 06:46:44;;;;;;;20.77;10.45;;;;;;;28.35;77.82;101141.59;4960032;29;20370;-73
2022/07/23 06:49:30;;;;;;;14.75;6.47;;;;;;;28.33;76.87;101143.56;4958635;29;20031;-72
2022/07/23 06:52:15;;;;;;;10.38;5.80;;;;;;;28.79;71.34;101139.53;4959192;29;20031;-72
2022/07/23 06:55:02;;;;;;;10.38;5.88;;;;;;;28.93;70.56;101138.34;4959740;28;20098;-72
2022/07/23 06:57:47;;;;;;;21.52;6.18;;;;;;;29.29;67.66;101146.78;4959015;29;20346;-72
2022/07/23 07:00:33;;;;;;;14.02;6.18;;;;;;;29.69;67.31;101153.09;4960145;29;20047;-72
2022/07/23 07:03:19;;;;;;;14.10;6.20;;;;;;;29.94;65.49;101149.88;4959181;28;20041;-72
2022/07/23 07:06:05;;;;;;;16.88;5.97;;;;;;;30.02;59.96;101149.19;4959544;29;20069;-72
2022/07/23 07:08:51;;;;;;;15.65;5.97;;;;;;;29.35;62.08;101154.38;4958784;29;20446;-72
2022/07/23 07:11:37;;;;;;;12.98;5.68;;;;;;;29.80;58.21;101158.38;4959827;29;20162;-72
2022/07/23 07:14:22;;;;;;;12.00;5.75;;;;;;;29.78;56.73;101154.13;4958611;28;20034;-72
2022/07/23 07:17:10;;;;;;;12.60;5.70;;;;;;;29.62;56.67;101159.19;4959699;29;20031;-72
2022/07/23 07:19:56;;;;;;;8.52;5.63;;;;;;;29.29;57.34;101156.75;4945263;29;20027;-72
2022/07/23 07:22:42;;;;;;;55.08;13.73;;;;;;;29.44;58.03;101155.38;4960084;29;20027;-74
2022/07/23 07:25:35;;;;;;;17.10;6.65;;;;;;;30.03;56.09;101140.94;4959228;28;20031;-73
2022/07/23 07:28:21;;;;;;;9.73;5.88;;;;;;;30.20;54.61;101144.81;4958510;29;20432;-73
2022/07/23 07:31:07;;;;;;;12.90;6.15;;;;;;;30.54;54.08;101143.41;4945578;29;20078;-73
2022/07/23 07:33:52;;;;;;;12.82;5.85;;;;;;;30.75;52.29;101134.16;4958819;28;20131;-73
2022/07/23 07:36:38;;;;;;;11.95;5.68;;;;;;;31.18;52.60;101141.72;4958930;29;20031;-74
2022/07/23 07:39:24;;;;;;;10.73;5.90;;;;;;;30.56;56.84;101139.53;4957555;28;20090;-74
2022/07/23 07:42:10;;;;;;;17.85;6.15;;;;;;;31.02;54.52;101136.06;4958767;29;20028;-74
2022/07/23 07:44:56;;;;;;;14.85;6.22;;;;;;;31.43;52.33;101141.06;4958003;28;20057;-73
2022/07/23 07:47:42;;;;;;;10.35;6.70;;;;;;;31.63;52.35;101133.69;4958841;29;20051;-73
2022/07/23 07:50:27;;;;;;;14.90;5.95;;;;;;;31.80;51.10;101136.47;4958768;29;20042;-74
2022/07/23 07:53:13;;;;;;;11.60;6.28;;;;;;;31.82;52.08;101122.75;4958086;28;20027;-73
2022/07/23 07:55:59;;;;;;;10.65;6.10;;;;;;;32.10;51.41;101124.41;4958487;29;20065;-73
2022/07/23 07:58:45;;;;;;;14.32;6.40;;;;;;;31.94;52.26;101121.53;4958174;29;20027;-73
2022/07/23 08:01:31;;;;;;;17.35;6.75;;;;;;;32.23;51.30;101124.88;4958287;29;20027;-73
2022/07/23 08:04:17;;;;;;;19.52;6.78;;;;;;;32.62;51.72;101118.97;4957225;28;20042;-74
2022/07/23 08:07:03;;;;;;;16.98;6.80;;;;;;;33.19;49.19;101128.38;4957646;29;20031;-74
2022/07/23 08:09:49;;;;;;;18.85;6.55;;;;;;;33.26;46.94;101121.28;4957840;29;20051;-74
2022/07/23 08:12:44;;;;;;;17.05;6.57;;;;;;;33.53;43.63;101132.81;4944462;29;20058;-73
2022/07/23 08:15:31;;;;;;;17.98;6.25;;;;;;;33.50;42.93;101115.97;4957279;28;20035;-74
2022/07/23 08:18:17;;;;;;;14.18;6.00;;;;;;;33.82;41.96;101122.41;4943959;29;20073;-74
2022/07/23 08:21:05;;;;;;;12.32;5.82;;;;;;;34.22;41.53;101114.31;4957810;29;20031;-74
2022/07/23 08:23:51;;;;;;;18.88;6.50;;;;;;;33.89;42.29;101117.16;4958072;28;20033;-75
2022/07/23 08:26:36;;;;;;;14.43;5.75;;;;;;;34.62;41.17;101116.19;4957628;29;20062;-74
2022/07/23 08:29:22;;;;;;;14.02;6.07;;;;;;;34.82;41.16;101103.97;4957904;29;20038;-74
2022/07/23 08:32:08;;;;;;;14.60;5.90;;;;;;;35.24;39.63;101108.09;4958008;29;20417;-74
2022/07/23 08:34:53;;;;;;;14.18;5.93;;;;;;;35.49;39.40;101108.88;4957796;28;20097;-75
2022/07/23 08:37:39;;;;;;;8.70;5.18;;;;;;;35.99;37.83;101108.47;4957753;29;20030;-73
2022/07/23 08:40:27;;;;;;;9.52;5.25;;;;;;;35.25;38.76;101103.50;4957586;29;20370;-74
2022/07/23 08:43:19;;;;;;;17.63;5.50;;;;;;;35.41;38.33;101094.44;4957255;28;20027;-74
2022/07/23 08:46:05;;;;;;;8.85;4.90;;;;;;;35.23;38.49;101105.53;4956990;29;20031;-74
2022/07/23 08:48:51;;;;;;;9.98;5.28;;;;;;;35.70;38.29;101100.06;4957192;29;20054;-74
2022/07/23 08:51:37;;;;;;;8.73;4.90;;;;;;;35.83;37.79;101098.50;4942449;29;20370;-74
2022/07/23 08:54:22;;;;;;;12.77;4.70;;;;;;;35.74;36.30;101099.53;4957622;28;20027;-75
2022/07/23 08:57:08;;;;;;;12.13;4.90;;;;;;;36.45;35.50;101096.53;4957272;29;20171;-74
2022/07/23 08:59:54;;;;;;;10.15;4.10;;;;;;;36.10;33.76;101095.25;4957816;29;20020;-74
2022/07/23 09:02:41;;;;;;;11.90;4.15;;;;;;;35.79;32.98;101099.88;4957204;29;20027;-74
2022/07/23 09:05:27;;;;;;;8.77;3.70;;;;;;;36.37;32.04;101092.00;4956762;28;20031;-74
2022/07/23 09:08:14;;;;;;;10.18;3.95;;;;;;;37.00;32.30;101097.88;4956720;29;20351;-74
2022/07/23 09:11:02;;;;;;;6.70;3.80;;;;;;;37.11;31.56;101091.94;4955920;29;20046;-74
2022/07/23 09:13:49;;;;;;;11.77;4.68;;;;;;;36.90;33.25;101100.03;4943493;28;20110;-74
2022/07/23 09:16:35;;;;;;;5.60;3.70;;;;;;;35.71;32.05;101091.72;4943880;29;20023;-74
2022/07/23 09:19:27;;;;;;;8.27;3.83;;;;;;;36.69;31.76;101091.72;4957523;29;20106;-74
2022/07/23 09:22:26;;;;;;;11.32;4.10;;;;;;;35.94;32.15;101083.59;4956235;29;20039;-73
2022/07/23 09:25:19;;;;;;;9.57;4.50;;;;;;;36.71;32.54;101092.38;4942769;29;20480;-72
2022/07/23 09:28:07;;;;;;;7.95;4.10;;;;;;;37.15;32.52;101090.56;4956235;29;20110;-73
2022/07/23 09:30:52;;;;;;;8.38;3.90;;;;;;;36.22;33.38;101088.38;4955929;29;20039;-74
2022/07/23 09:33:38;;;;;;;6.97;4.15;;;;;;;36.97;32.44;101087.34;4957034;28;20357;-74
2022/07/23 09:36:29;;;;;;;10.23;4.40;;;;;;;37.14;33.19;101080.66;4956660;29;20034;-74
2022/07/23 09:39:21;;;;;;;11.52;4.30;;;;;;;37.23;32.51;101090.47;4956116;29;20050;-74
2022/07/23 09:42:20;;;;;;;6.57;3.97;;;;;;;36.99;32.49;101082.50;4956734;29;20434;-74
2022/07/23 09:45:11;;;;;;;12.13;3.83;;;;;;;36.43;32.28;101069.41;4956254;28;20042;-74
2022/07/23 09:48:16;;;;;;;9.23;4.20;;;;;;;36.71;32.67;101066.94;4956565;29;20031;-73
2022/07/23 09:51:04;;;;;;;6.82;3.83;;;;;;;36.99;32.04;101068.84;4956568;29;20533;-74
2022/07/23 09:53:50;;;;;;;11.80;4.50;;;;;;;36.77;31.69;101072.53;4956230;28;20045;-73
2022/07/23 09:56:37;;;;;;;7.68;4.65;;;;;;;36.77;31.97;101072.53;4955935;29;20035;-73
2022/07/23 09:59:26;;;;;;;9.07;4.35;;;;;;;37.02;31.27;101070.34;4955448;29;20023;-73
2022/07/23 10:02:14;;;;;;;11.20;4.18;;;;;;;37.38;31.37;101057.63;4955937;28;20027;-73
2022/07/23 10:05:01;;;;;;;8.75;4.20;;;;;;;37.33;30.70;101050.00;4955726;28;20054;-73
2022/07/23 10:07:48;;;;;;;9.30;4.18;;;;;;;37.12;30.91;101049.88;4956192;29;20051;-74
2022/07/23 10:10:34;;;;;;;9.82;4.65;;;;;;;37.62;30.36;101049.97;4956242;29;20038;-73
2022/07/23 10:16:25;;;;;;;11.13;4.50;;;;;;;37.31;30.39;101043.88;4961237;29;20110;-72
2022/07/23 10:19:12;;;;;;;9.13;4.38;;;;;;;37.21;30.78;101031.53;4956964;29;20038;-73
2022/07/23 10:22:04;;;;;;;14.48;4.65;;;;;;;36.94;30.54;101041.25;4943279;29;20031;-73
2022/07/23 10:25:14;;;;;;;12.07;4.50;;;;;;;36.82;31.44;101037.28;4958242;28;20370;-74
2022/07/23 10:28:12;;;;;;;12.35;3.97;;;;;;;36.93;31.08;101035.97;4960082;29;20389;-74
2022/07/23 10:31:36;;;;;;;8.38;4.45;;;;;;;37.21;30.31;101037.84;4963947;29;20106;-73
2022/07/23 10:34:35;;;;;;;9.57;4.53;;;;;;;37.44;30.79;101033.09;4963052;28;20052;-73
2022/07/23 10:37:26;;;;;;;11.90;4.53;;;;;;;37.52;30.25;101027.50;4963053;29;20027;-73
2022/07/23 10:40:21;;;;;;;11.05;4.95;;;;;;;37.38;30.00;101025.69;4960083;29;20051;-73
2022/07/23 10:43:15;;;;;;;8.07;4.22;;;;;;;37.12;29.63;101013.53;4961869;29;20031;-73
2022/07/23 10:46:57;;;;;;;11.35;4.50;;;;;;;37.01;30.60;101022.22;4959048;29;20036;-74
2022/07/23 10:49:43;;;;;;;10.00;4.53;;;;;;;37.32;30.13;101011.94;4888630;29;20357;-74
2022/07/23 10:52:29;;;;;;;10.98;4.22;;;;;;;37.55;29.99;101009.88;4927773;29;20102;-74
2022/07/23 10:55:21;;;;;;;7.10;4.15;;;;;;;37.31;29.89;101013.81;4941325;29;20115;-74
2022/07/23 10:58:07;;;;;;;14.85;5.30;;;;;;;37.72;29.62;101005.91;4954523;29;20118;-73
2022/07/23 11:00:53;;;;;;;9.77;4.43;;;;;;;37.36;29.66;101003.13;4955859;29;20034;-73
2022/07/23 11:03:38;;;;;;;14.05;4.93;;;;;;;37.36;28.94;101000.41;4954958;28;20351;-74
2022/07/23 11:06:50;;;;;;;7.45;4.40;;;;;;;37.76;28.03;101001.72;4955953;29;20035;-75
2022/07/23 11:09:44;;;;;;;7.00;4.40;;;;;;;37.89;28.14;100994.47;4955518;29;20046;-73
2022/07/23 11:12:30;;;;;;;5.40;4.38;;;;;;;37.94;27.98;100986.53;4956054;28;20027;-74
2022/07/23 11:15:15;;;;;;;9.63;4.82;;;;;;;38.31;28.24;100990.88;4957915;28;20050;-74
2022/07/23 11:18:01;;;;;;;7.68;4.28;;;;;;;37.88;28.02;100983.72;4945365;29;20338;-74
2022/07/23 11:20:47;;;;;;;12.70;5.15;;;;;;;37.96;27.13;100984.44;4958290;29;20112;-73
2022/07/23 11:23:59;;;;;;;9.85;5.63;;;;;;;37.92;27.84;100983.13;4945087;28;20537;-73
2022/07/23 11:26:52;;;;;;;10.20;6.35;;;;;;;38.05;27.49;100986.00;4957378;29;20055;-73
2022/07/23 11:29:38;;;;;;;10.10;5.05;;;;;;;37.82;28.14;100977.16;4959494;29;20585;-73
2022/07/23 11:32:29;;;;;;;9.13;6.93;;;;;;;38.50;27.69;100977.34;4959009;29;20054;-73
2022/07/23 11:35:27;;;;;;;10.95;5.15;;;;;;;38.04;27.38;100970.66;4958414;28;20027;-73
2022/07/23 11:38:22;;;;;;;11.18;5.53;;;;;;;38.68;27.79;100974.94;4945777;29;20031;-72
2022/07/23 11:41:10;;;;;;;8.80;5.28;;;;;;;38.55;27.13;100971.25;4958425;29;20177;-75
2022/07/23 11:43:55;;;;;;;6.70;4.70;;;;;;;39.06;26.38;100967.16;4958774;28;20208;-73
2022/07/23 11:46:55;;;;;;;9.15;4.82;;;;;;;38.76;26.80;100972.03;4958686;29;20057;-73
2022/07/23 11:50:01;;;;;;;12.25;5.30;;;;;;;38.20;27.05;100964.88;4958614;29;20095;-73
2022/07/23 11:52:46;;;;;;;11.25;4.85;;;;;;;38.94;26.57;100970.66;4958086;29;20028;-73
2022/07/23 11:55:32;;;;;;;10.13;5.15;;;;;;;39.06;26.41;100966.28;4958437;29;20034;-73
2022/07/23 11:58:18;;;;;;;7.72;4.72;;;;;;;38.20;27.54;100964.88;4958381;29;20489;-72
2022/07/23 12:01:05;;;;;;;8.02;4.93;;;;;;;38.82;26.66;100959.41;4944841;29;20027;-72
2022/07/23 12:03:51;;;;;;;11.90;5.18;;;;;;;38.57;26.88;100964.53;4958452;28;20066;-75
2022/07/23 12:06:38;;;;;;;8.57;4.90;;;;;;;39.40;26.39;100964.31;4944829;29;20377;-74
2022/07/23 12:09:24;;;;;;;9.30;4.82;;;;;;;38.82;26.63;100959.41;4957661;29;20123;-73
2022/07/23 12:12:09;;;;;;;9.77;5.18;;;;;;;38.94;26.44;100949.59;4958430;29;20465;-74
2022/07/23 12:14:57;;;;;;;12.77;5.18;;;;;;;38.60;26.73;100947.69;4957398;28;20046;-73
2022/07/23 12:17:46;;;;;;;6.35;4.57;;;;;;;38.65;27.12;100942.44;4957577;29;20458;-74
2022/07/23 12:20:35;;;;;;;10.07;4.80;;;;;;;39.09;26.68;100943.94;4957835;29;20127;-74
2022/07/23 12:23:24;;;;;;;6.35;4.88;;;;;;;38.91;26.39;100938.16;4956286;28;20035;-74
2022/07/23 12:26:11;;;;;;;7.00;4.88;;;;;;;39.15;26.06;100940.38;4957455;28;20086;-74
2022/07/23 12:28:57;;;;;;;9.48;4.90;;;;;;;38.98;26.40;100939.06;4957529;29;20042;-73
2022/07/23 12:31:43;;;;;;;10.35;5.28;;;;;;;39.23;26.60;100932.81;4957814;29;20090;-73
2022/07/23 12:34:28;;;;;;;13.00;4.90;;;;;;;39.58;26.65;100939.91;4957671;28;20106;-73
2022/07/23 12:37:35;;;;;;;9.50;5.10;;;;;;;39.52;26.34;100934.41;4944250;29;20395;-73
2022/07/23 12:40:44;;;;;;;10.82;4.95;;;;;;;38.93;27.06;100931.47;4957152;29;20106;-73
2022/07/23 12:43:43;;;;;;;9.00;4.80;;;;;;;39.68;25.96;100934.81;4943492;28;20438;-73
2022/07/23 12:46:33;;;;;;;12.98;4.80;;;;;;;39.20;26.71;100922.25;4956594;29;20374;-73
2022/07/23 12:49:26;;;;;;;10.30;4.80;;;;;;;39.53;26.45;100920.44;4957575;29;20346;-73
2022/07/23 12:52:16;;;;;;;7.93;4.55;;;;;;;39.50;26.44;100915.41;4957398;29;20110;-74
2022/07/23 12:55:02;;;;;;;8.50;5.18;;;;;;;39.53;26.08;100916.88;4957579;28;20027;-73
2022/07/23 12:57:47;;;;;;;8.20;4.95;;;;;;;39.14;26.05;100914.88;4957284;29;20136;-73